Time;durP1;ratioP1;P1;durP2;ratioP2;P2;SDS_P1;SDS_P2;PMS_P1;PMS_P2;Temp;Humidity;BMP_temperature;BMP_pressure;BME280_temperature;BME280_humidity;BME280_pressure;Samples;Min_cycle;Max_cycle;Signal;HPM_P1;HPM_P2
2024/01/11 00:02:10;;;;;;;76.68;24.55;;;-5.40;99.90;;;;;;4434423;28;659695;-72
2024/01/11 00:04:58;;;;;;;103.73;33.13;;;-5.40;99.90;;;;;;4418125;28;659655;-72
2024/01/11 00:07:45;;;;;;;106.40;32.73;;;-5.50;99.90;;;;;;4436213;28;660852;-72
2024/01/11 00:10:32;;;;;;;102.70;34.17;;;-5.50;99.90;;;;;;4427743;28;660184;-71
2024/01/11 00:13:21;;;;;;;96.10;29.67;;;-5.50;99.90;;;;;;4436405;28;661415;-72
2024/01/11 00:16:08;;;;;;;103.17;30.33;;;-5.60;99.90;;;;;;4415731;28;659256;-72
2024/01/11 00:18:55;;;;;;;96.27;28.70;;;-5.60;99.90;;;;;;4437273;28;661176;-72
2024/01/11 00:21:42;;;;;;;62.60;18.93;;;-5.70;99.90;;;;;;4418129;28;658675;-71
2024/01/11 00:24:30;;;;;;;91.17;26.43;;;-5.60;99.90;;;;;;4436936;28;660342;-72
2024/01/11 00:27:17;;;;;;;27.23;6.43;;;-5.60;99.90;;;;;;4436280;28;659200;-71
2024/01/11 00:30:08;;;;;;;77.00;24.27;;;-5.70;99.90;;;;;;4437769;28;658073;-72
2024/01/11 00:32:56;;;;;;;70.60;23.23;;;-5.70;99.90;;;;;;4405832;28;659057;-72
2024/01/11 00:35:43;;;;;;;81.33;26.37;;;-5.50;99.90;;;;;;4417255;28;659055;-72
2024/01/11 00:38:30;;;;;;;70.27;22.60;;;-5.60;99.90;;;;;;4439983;28;659342;-72
2024/01/11 00:41:18;;;;;;;67.70;21.10;;;-5.70;99.90;;;;;;4418132;28;658812;-72
2024/01/11 00:44:05;;;;;;;102.07;33.77;;;-5.60;99.90;;;;;;4434594;28;660247;-72
2024/01/11 00:46:54;;;;;;;59.40;17.50;;;-5.70;99.90;;;;;;4429532;28;659706;-72
2024/01/11 00:49:42;;;;;;;86.67;27.07;;;-5.60;99.90;;;;;;4436818;28;659096;-71
2024/01/11 00:52:29;;;;;;;87.70;29.27;;;-5.80;99.90;;;;;;4416746;28;659263;-72
2024/01/11 00:55:17;;;;;;;97.57;28.73;;;-5.80;99.90;;;;;;4435378;28;658684;-72
2024/01/11 00:58:04;;;;;;;86.17;25.47;;;-5.80;99.90;;;;;;4412643;28;660414;-71
2024/01/11 01:00:52;;;;;;;87.57;26.73;;;-5.80;99.90;;;;;;4432712;28;659521;-71
2024/01/11 01:03:41;;;;;;;75.10;23.93;;;-5.80;99.90;;;;;;4413013;28;659239;-72
2024/01/11 01:06:28;;;;;;;56.60;18.60;;;-5.90;99.90;;;;;;4413004;28;659122;-71
2024/01/11 01:09:15;;;;;;;106.23;35.77;;;-5.90;99.90;;;;;;4438851;28;658998;-71
2024/01/11 01:12:03;;;;;;;81.15;22.80;;;-6.00;99.90;;;;;;4413284;28;659949;-71
2024/01/11 01:14:50;;;;;;;98.63;28.27;;;-6.00;99.90;;;;;;4434429;28;659255;-72
2024/01/11 01:17:38;;;;;;;43.73;15.07;;;-6.10;99.90;;;;;;4424690;28;659591;-71
2024/01/11 01:20:26;;;;;;;66.70;20.50;;;-6.00;99.90;;;;;;4438260;28;658128;-72
2024/01/11 01:23:14;;;;;;;61.40;21.20;;;-6.00;99.90;;;;;;4413644;28;659030;-72
2024/01/11 01:26:01;;;;;;;57.80;17.97;;;-6.00;99.90;;;;;;4431820;28;659016;-72
2024/01/11 01:28:48;;;;;;;63.30;18.83;;;-5.90;99.90;;;;;;4415144;28;658711;-72
2024/01/11 01:31:37;;;;;;;48.23;16.60;;;-5.90;99.90;;;;;;4433116;28;658983;-72
2024/01/11 01:34:24;;;;;;;71.83;22.70;;;-6.00;99.90;;;;;;4409487;28;659632;-72
2024/01/11 01:37:13;;;;;;;56.23;18.00;;;-5.90;99.90;;;;;;4436239;28;658477;-72
2024/01/11 01:40:00;;;;;;;48.23;16.07;;;-5.90;99.90;;;;;;4410920;28;659068;-72
2024/01/11 01:42:47;;;;;;;56.13;19.83;;;-5.90;99.90;;;;;;4414596;28;661033;-72
2024/01/11 01:45:35;;;;;;;34.63;12.03;;;-5.90;99.90;;;;;;4441897;28;658132;-72
2024/01/11 01:48:22;;;;;;;61.30;18.60;;;-6.00;99.90;;;;;;4445698;28;658456;-72
2024/01/11 01:51:09;;;;;;;47.90;17.43;;;-6.10;99.90;;;;;;4418073;28;659187;-72
2024/01/11 01:53:58;;;;;;;72.47;23.57;;;-6.00;99.90;;;;;;4434497;28;659090;-71
2024/01/11 01:56:45;;;;;;;67.67;21.10;;;-6.00;99.90;;;;;;4414804;28;658833;-72
2024/01/11 01:59:32;;;;;;;61.93;20.40;;;-6.10;99.90;;;;;;4431510;28;659335;-72
2024/01/11 02:02:20;;;;;;;65.10;18.23;;;-6.00;99.90;;;;;;4440108;28;658419;-72
2024/01/11 02:05:07;;;;;;;72.13;22.57;;;-6.00;99.90;;;;;;4414743;28;659728;-71
2024/01/11 02:07:55;;;;;;;55.63;17.10;;;-6.10;99.90;;;;;;4442430;28;659747;-72
2024/01/11 02:10:44;;;;;;;33.03;8.77;;;-6.00;99.90;;;;;;4444169;28;659304;-72
2024/01/11 02:13:32;;;;;;;52.30;18.03;;;-6.10;99.90;;;;;;4440899;28;658207;-71
2024/01/11 02:16:19;;;;;;;45.70;14.53;;;-6.10;99.90;;;;;;4417489;28;659461;-72
2024/01/11 02:19:07;;;;;;;72.15;22.98;;;-6.20;99.90;;;;;;4436843;28;659347;-72
2024/01/11 02:21:54;;;;;;;47.97;14.33;;;-6.20;99.90;;;;;;4421961;28;659039;-72
2024/01/11 02:24:44;;;;;;;57.00;18.67;;;-6.20;99.90;;;;;;4421369;28;658616;-71
2024/01/11 02:27:31;;;;;;;55.53;17.63;;;-6.20;99.90;;;;;;4438149;28;658283;-72
2024/01/11 02:30:18;;;;;;;37.63;12.83;;;-6.40;99.90;;;;;;4418722;28;659378;-72
2024/01/11 02:33:06;;;;;;;45.40;15.97;;;-6.30;99.90;;;;;;4438682;28;658668;-72
2024/01/11 02:35:53;;;;;;;46.07;15.90;;;-6.20;99.90;;;;;;4416742;28;658537;-72
2024/01/11 02:38:40;;;;;;;53.20;18.53;;;-6.20;99.90;;;;;;4442911;28;659188;-72
2024/01/11 02:41:29;;;;;;;23.90;8.40;;;-6.20;99.90;;;;;;4425663;28;659075;-72
2024/01/11 02:44:16;;;;;;;43.90;12.97;;;-6.10;99.90;;;;;;4443656;28;657546;-71
2024/01/11 02:47:04;;;;;;;50.13;15.15;;;-6.10;99.90;;;;;;4412393;28;659207;-71
2024/01/11 02:49:51;;;;;;;51.50;16.97;;;-6.10;99.90;;;;;;4441895;28;659130;-72
2024/01/11 02:52:38;;;;;;;28.77;11.20;;;-6.10;99.90;;;;;;4421100;28;658367;-72
2024/01/11 02:55:25;;;;;;;46.43;13.90;;;-6.10;99.90;;;;;;4441510;28;659028;-72
2024/01/11 02:58:14;;;;;;;54.00;19.97;;;-6.10;99.90;;;;;;4421737;28;658849;-71
2024/01/11 03:01:01;;;;;;;50.97;14.77;;;-6.00;99.90;;;;;;4433522;28;658955;-72
2024/01/11 03:03:48;;;;;;;52.25;17.52;;;-6.10;99.90;;;;;;4418100;28;658329;-72
2024/01/11 03:06:36;;;;;;;24.67;7.57;;;-6.00;99.90;;;;;;4438207;28;659146;-72
2024/01/11 03:09:23;;;;;;;46.60;18.37;;;-6.10;99.90;;;;;;4424167;28;658031;-72
2024/01/11 03:12:10;;;;;;;34.27;10.77;;;-6.00;99.90;;;;;;4432217;28;659457;-72
2024/01/11 03:14:59;;;;;;;46.70;17.60;;;-6.00;99.90;;;;;;4430989;28;658963;-72
2024/01/11 03:17:46;;;;;;;65.07;22.07;;;-6.10;99.90;;;;;;4451967;28;658538;-72
2024/01/11 03:20:33;;;;;;;44.03;14.63;;;-6.10;99.90;;;;;;4420726;28;658371;-72
2024/01/11 03:23:20;;;;;;;29.70;10.73;;;-6.10;99.90;;;;;;4440293;28;659596;-72
2024/01/11 03:26:14;;;;;;;46.73;15.70;;;-6.20;99.90;;;;;;4422541;28;658643;-71
2024/01/11 03:29:01;;;;;;;31.87;10.07;;;-6.30;99.90;;;;;;4419598;28;659218;-72
2024/01/11 03:31:49;;;;;;;53.33;17.30;;;-6.30;99.90;;;;;;4420132;28;659116;-72
2024/01/11 03:34:36;;;;;;;32.88;10.93;;;-6.40;99.90;;;;;;4445045;28;658970;-72
2024/01/11 03:37:24;;;;;;;42.00;12.67;;;-6.40;99.90;;;;;;4422069;28;658461;-72
2024/01/11 03:40:12;;;;;;;51.03;16.40;;;-6.50;99.90;;;;;;4436835;28;659103;-72
2024/01/11 03:42:59;;;;;;;48.97;16.03;;;-6.60;99.90;;;;;;4422620;28;658357;-72
2024/01/11 03:45:46;;;;;;;46.93;17.33;;;-6.50;99.90;;;;;;4440805;28;659024;-72
2024/01/11 03:48:35;;;;;;;47.93;14.57;;;-6.50;99.90;;;;;;4421983;28;659119;-71
2024/01/11 03:51:23;;;;;;;57.10;18.42;;;-6.50;99.90;;;;;;4417491;28;658238;-72
2024/01/11 03:54:10;;;;;;;28.00;9.67;;;-6.60;99.90;;;;;;4441487;28;659575;-72
2024/01/11 03:56:58;;;;;;;53.53;16.53;;;-6.60;99.90;;;;;;4442824;28;657662;-72
2024/01/11 03:59:45;;;;;;;51.57;16.57;;;-6.60;99.90;;;;;;4438804;28;660905;-72
2024/01/11 04:02:33;;;;;;;26.67;9.90;;;-6.60;99.90;;;;;;4412212;28;659286;-72
2024/01/11 04:05:21;;;;;;;52.37;14.33;;;-6.70;99.90;;;;;;4438652;28;659714;-72
2024/01/11 04:08:08;;;;;;;53.03;17.90;;;-6.80;99.90;;;;;;4420661;28;659010;-72
2024/01/11 04:10:55;;;;;;;28.13;9.15;;;-6.80;99.90;;;;;;4440152;28;660632;-72
2024/01/11 04:13:43;;;;;;;23.60;8.47;;;-6.90;99.90;;;;;;4426544;28;657731;-71
2024/01/11 04:16:30;;;;;;;18.30;7.57;;;-6.90;99.90;;;;;;4434942;28;658912;-71
2024/01/11 04:19:17;;;;;;;31.97;10.80;;;-6.90;99.90;;;;;;4442384;28;658357;-71
2024/01/11 04:22:06;;;;;;;44.23;13.57;;;-7.10;99.90;;;;;;4441373;28;659632;-72
2024/01/11 04:24:53;;;;;;;49.87;16.23;;;-7.20;99.90;;;;;;4426442;28;659173;-72
2024/01/11 04:27:40;;;;;;;54.73;15.63;;;-7.20;99.90;;;;;;4448563;28;659699;-72
2024/01/11 04:30:28;;;;;;;35.83;10.27;;;-7.30;99.90;;;;;;4420252;28;658798;-72
2024/01/11 04:33:15;;;;;;;61.87;19.53;;;-7.40;99.90;;;;;;4444836;28;658685;-72
2024/01/11 04:36:02;;;;;;;33.47;9.40;;;-7.50;99.90;;;;;;4437856;28;658623;-71
2024/01/11 04:38:51;;;;;;;60.47;17.13;;;-7.50;99.90;;;;;;4453289;28;658436;-72
2024/01/11 04:41:38;;;;;;;52.00;17.77;;;-7.50;99.90;;;;;;4416645;28;659567;-72
2024/01/11 04:44:26;;;;;;;63.63;22.00;;;-7.50;99.90;;;;;;4430067;28;659019;-71
2024/01/11 04:47:13;;;;;;;48.23;17.23;;;-7.70;99.90;;;;;;4418908;28;659292;-71
2024/01/11 04:50:00;;;;;;;38.97;15.33;;;-7.70;99.90;;;;;;4447975;28;659402;-72
2024/01/11 04:52:47;;;;;;;52.47;18.97;;;-7.70;99.90;;;;;;4422102;28;658565;-71
2024/01/11 04:55:36;;;;;;;65.33;22.30;;;-7.70;99.90;;;;;;4440728;28;659017;-71
2024/01/11 04:58:23;;;;;;;48.97;15.63;;;-7.70;99.90;;;;;;4414960;28;658751;-71
2024/01/11 05:01:12;;;;;;;47.53;15.27;;;-7.80;99.90;;;;;;4440261;28;659457;-72
2024/01/11 05:04:00;;;;;;;65.13;19.00;;;-7.70;99.90;;;;;;4420593;28;659275;-72
2024/01/11 05:06:47;;;;;;;60.00;19.07;;;-7.70;99.90;;;;;;4434968;28;659677;-72
2024/01/11 05:09:35;;;;;;;52.27;16.67;;;-7.80;99.90;;;;;;4446301;28;659224;-72
2024/01/11 05:12:23;;;;;;;52.13;16.13;;;-7.80;99.90;;;;;;4432020;28;658664;-71
2024/01/11 05:15:11;;;;;;;22.00;8.23;;;-7.90;99.90;;;;;;4417910;28;659720;-71
2024/01/11 05:17:59;;;;;;;60.03;20.57;;;-8.00;99.90;;;;;;4414544;28;658328;-71
2024/01/11 05:20:46;;;;;;;62.13;20.23;;;-8.00;99.90;;;;;;4440854;28;658482;-72
2024/01/11 05:23:33;;;;;;;58.60;21.73;;;-8.00;99.90;;;;;;4426226;28;658588;-71
2024/01/11 05:26:21;;;;;;;69.33;24.37;;;-8.10;99.90;;;;;;4447143;28;660123;-72
2024/01/11 05:29:09;;;;;;;55.80;16.83;;;-8.00;99.90;;;;;;4412052;28;659599;-71
2024/01/11 05:31:56;;;;;;;57.73;20.93;;;-8.00;99.90;;;;;;4446992;28;658163;-71
2024/01/11 05:34:44;;;;;;;63.05;21.02;;;-8.00;99.90;;;;;;4415332;28;658989;-72
2024/01/11 05:37:31;;;;;;;54.63;18.77;;;-8.00;99.90;;;;;;4445270;28;659298;-71
2024/01/11 05:40:18;;;;;;;65.70;20.57;;;-8.00;99.90;;;;;;4408515;28;658742;-72
2024/01/11 05:43:05;;;;;;;53.53;16.50;;;-8.10;99.90;;;;;;4430458;28;659960;-72
2024/01/11 05:45:54;;;;;;;45.43;16.43;;;-8.00;99.90;;;;;;4418975;28;659225;-71
2024/01/11 05:48:41;;;;;;;58.87;16.93;;;-7.90;99.90;;;;;;4441750;28;658495;-71
2024/01/11 05:51:28;;;;;;;62.70;22.50;;;-7.90;99.90;;;;;;4424189;28;659244;-71
2024/01/11 05:54:16;;;;;;;49.93;13.43;;;-7.90;99.90;;;;;;4434611;28;658776;-72
2024/01/11 05:57:03;;;;;;;59.07;19.17;;;-7.90;99.90;;;;;;4414863;28;659155;-71
2024/01/11 05:59:50;;;;;;;31.67;9.87;;;-7.90;99.90;;;;;;4427565;28;660174;-72
2024/01/11 06:02:39;;;;;;;50.88;17.52;;;-7.80;99.90;;;;;;4426388;28;658233;-72
2024/01/11 06:05:26;;;;;;;48.30;16.67;;;-7.90;99.90;;;;;;4428531;28;659355;-73
2024/01/11 06:08:13;;;;;;;37.40;14.30;;;-7.90;99.90;;;;;;4421311;28;660695;-73
2024/01/11 06:11:01;;;;;;;40.50;13.43;;;-7.80;99.90;;;;;;4436221;28;659594;-72
2024/01/11 06:13:48;;;;;;;49.63;15.87;;;-7.60;99.90;;;;;;4419315;28;658679;-72
2024/01/11 06:16:35;;;;;;;49.73;17.87;;;-7.60;99.90;;;;;;4437594;28;659458;-71
2024/01/11 06:19:24;;;;;;;49.38;15.10;;;-7.50;99.90;;;;;;4416509;28;658679;-71
2024/01/11 06:22:11;;;;;;;54.03;16.63;;;-7.50;99.90;;;;;;4434624;28;658345;-71
2024/01/11 06:24:59;;;;;;;45.33;16.50;;;-7.40;99.90;;;;;;4409753;28;659095;-72
2024/01/11 06:27:47;;;;;;;34.30;11.73;;;-7.30;99.90;;;;;;4427848;28;659126;-70
2024/01/11 06:30:35;;;;;;;44.87;14.13;;;-7.20;99.90;;;;;;4409355;28;659938;-70
2024/01/11 06:33:22;;;;;;;24.37;8.87;;;-7.20;99.90;;;;;;4429184;28;658536;-69
2024/01/11 06:36:11;;;;;;;52.07;17.17;;;-7.20;99.90;;;;;;4436942;28;657517;-69
2024/01/11 06:38:58;;;;;;;56.80;20.47;;;-7.10;99.90;;;;;;4411939;28;659528;-70
2024/01/11 06:41:45;;;;;;;33.73;12.03;;;-7.10;99.90;;;;;;4437910;28;659022;-69
2024/01/11 06:44:33;;;;;;;39.30;12.30;;;-7.00;99.90;;;;;;4410553;28;659718;-70
2024/01/11 06:47:20;;;;;;;38.80;11.60;;;-7.00;99.90;;;;;;4432464;28;660180;-71
2024/01/11 06:50:08;;;;;;;58.77;19.83;;;-7.00;99.90;;;;;;4424449;28;660548;-71
2024/01/11 06:52:57;;;;;;;53.97;16.73;;;-6.90;99.90;;;;;;4433151;28;660409;-72
2024/01/11 06:55:44;;;;;;;49.27;17.17;;;-6.90;99.90;;;;;;4423769;28;660588;-73
2024/01/11 06:58:31;;;;;;;38.00;12.97;;;-6.90;99.90;;;;;;4443585;28;659547;-74
2024/01/11 07:01:19;;;;;;;44.70;13.70;;;-6.90;99.90;;;;;;4432350;28;659046;-74
2024/01/11 07:04:06;;;;;;;21.87;8.10;;;-7.00;99.90;;;;;;4446203;28;659093;-74
2024/01/11 07:06:53;;;;;;;40.87;13.13;;;-7.00;99.90;;;;;;4430366;28;657508;-74
2024/01/11 07:09:41;;;;;;;21.77;5.60;;;-7.00;99.90;;;;;;4445085;28;659130;-74
2024/01/11 07:12:29;;;;;;;46.67;14.73;;;-7.10;99.90;;;;;;4421153;28;659292;-73
2024/01/11 07:15:17;;;;;;;45.07;14.73;;;-7.30;99.90;;;;;;4439780;28;658548;-75
2024/01/11 07:18:04;;;;;;;44.77;13.27;;;-7.30;99.90;;;;;;4419893;28;659434;-73
2024/01/11 07:20:52;;;;;;;38.90;14.07;;;-7.20;99.90;;;;;;4439530;28;658076;-74
2024/01/11 07:23:39;;;;;;;48.40;14.40;;;-7.00;99.90;;;;;;4422462;28;659354;-74
2024/01/11 07:26:28;;;;;;;59.87;21.90;;;-6.90;99.90;;;;;;4437077;28;658424;-74
2024/01/11 07:29:15;;;;;;;21.47;9.07;;;-6.80;99.90;;;;;;4419145;28;659662;-74
2024/01/11 07:32:03;;;;;;;42.07;14.77;;;-6.70;99.90;;;;;;4433968;28;657957;-74
2024/01/11 07:34:50;;;;;;;20.75;6.40;;;-6.50;99.90;;;;;;4441783;28;659124;-75
2024/01/11 07:37:38;;;;;;;27.53;9.23;;;-6.30;99.90;;;;;;4430080;28;658351;-74
2024/01/11 07:40:25;;;;;;;33.63;11.63;;;-6.10;99.90;;;;;;4445303;28;658952;-74
2024/01/11 07:43:14;;;;;;;19.00;7.13;;;-5.80;99.90;;;;;;4437184;28;659428;-75
2024/01/11 07:46:03;;;;;;;26.73;10.07;;;-5.60;99.90;;;;;;4442775;28;658337;-75
2024/01/11 07:48:50;;;;;;;41.33;13.70;;;-5.40;99.90;;;;;;4430757;28;659200;-75
2024/01/11 07:51:38;;;;;;;33.22;11.95;;;-5.20;99.90;;;;;;4429493;28;658315;-74
2024/01/11 07:54:26;;;;;;;21.20;8.40;;;-4.80;99.90;;;;;;4449172;28;659647;-76
2024/01/11 07:57:13;;;;;;;34.50;13.33;;;-4.50;99.90;;;;;;4427139;28;657538;-75
2024/01/11 08:00:02;;;;;;;13.57;5.43;;;-4.50;99.90;;;;;;4450096;28;658820;-76
2024/01/11 08:02:50;;;;;;;11.67;3.90;;;-4.40;99.90;;;;;;4425991;28;658476;-75
2024/01/11 08:05:37;;;;;;;7.03;2.63;;;-4.40;99.90;;;;;;4449328;28;657381;-75
2024/01/11 08:08:24;;;;;;;21.37;8.60;;;-4.40;99.90;;;;;;4459772;28;656603;-72
2024/01/11 08:11:12;;;;;;;35.93;13.70;;;-4.50;99.90;;;;;;4445059;28;657283;-72
2024/01/11 08:13:59;;;;;;;35.17;10.73;;;-4.60;99.90;;;;;;4416656;28;659644;-72
2024/01/11 08:16:48;;;;;;;37.73;14.37;;;-4.50;99.90;;;;;;4430442;28;658575;-72
2024/01/11 08:19:35;;;;;;;19.17;7.00;;;-4.60;99.90;;;;;;4418805;28;659525;-72
2024/01/11 08:22:22;;;;;;;26.48;9.50;;;-4.40;99.90;;;;;;4425923;28;657947;-72
2024/01/11 08:25:10;;;;;;;39.77;15.80;;;-4.30;99.90;;;;;;4440060;28;658400;-72
2024/01/11 08:27:57;;;;;;;36.37;13.30;;;-4.30;99.90;;;;;;4434433;28;658615;-72
2024/01/11 08:30:45;;;;;;;36.47;12.20;;;-4.20;99.90;;;;;;4444896;28;659389;-72
2024/01/11 08:33:34;;;;;;;33.22;12.65;;;-4.30;99.90;;;;;;4417032;28;658876;-72
2024/01/11 08:36:21;;;;;;;38.63;14.23;;;-4.20;99.90;;;;;;4446039;28;659315;-73
2024/01/11 08:39:11;;;;;;;36.77;11.00;;;-4.10;99.90;;;;;;4421113;28;659186;-72
2024/01/11 08:41:58;;;;;;;21.73;7.80;;;-4.20;99.90;;;;;;4423898;28;658994;-72
2024/01/11 08:44:45;;;;;;;36.77;13.43;;;-4.20;99.90;;;;;;4440873;28;658620;-72
2024/01/11 08:47:33;;;;;;;37.80;12.43;;;-4.20;99.90;;;;;;4415430;28;658727;-72
2024/01/11 08:50:21;;;;;;;46.20;14.97;;;-4.20;99.90;;;;;;4438900;28;660200;-72
2024/01/11 08:53:08;;;;;;;46.72;16.45;;;-4.20;99.90;;;;;;4420553;28;658250;-72
2024/01/11 08:55:56;;;;;;;36.60;12.43;;;-4.20;99.90;;;;;;4444048;28;658978;-72
2024/01/11 08:58:43;;;;;;;37.60;13.83;;;-4.20;99.90;;;;;;4419219;28;658553;-72
2024/01/11 09:01:30;;;;;;;34.47;13.47;;;-4.10;99.90;;;;;;4442873;28;660686;-72
2024/01/11 09:04:17;;;;;;;49.20;19.27;;;-4.00;99.90;;;;;;4418117;28;658775;-72
2024/01/11 09:07:06;;;;;;;22.97;8.27;;;-4.00;99.90;;;;;;4437764;28;659616;-72
2024/01/11 09:09:55;;;;;;;39.23;12.27;;;-4.00;99.90;;;;;;4424659;28;657504;-72
2024/01/11 09:12:42;;;;;;;36.93;15.83;;;-3.90;99.90;;;;;;4419500;28;658612;-72
2024/01/11 09:15:30;;;;;;;24.43;8.07;;;-3.90;99.90;;;;;;4443108;28;659770;-72
2024/01/11 09:18:17;;;;;;;32.47;12.33;;;-4.00;99.90;;;;;;4410021;28;657471;-72
2024/01/11 09:21:05;;;;;;;33.80;13.27;;;-3.80;99.90;;;;;;4419413;28;659928;-72
2024/01/11 09:23:54;;;;;;;36.97;12.07;;;-3.60;99.90;;;;;;4415060;28;659020;-72
2024/01/11 09:26:42;;;;;;;38.53;14.00;;;-3.30;99.90;;;;;;4425737;28;659252;-72
2024/01/11 09:29:29;;;;;;;34.03;12.13;;;-3.10;99.90;;;;;;4399746;28;658793;-72
2024/01/11 09:32:16;;;;;;;33.07;12.00;;;-3.20;99.10;;;;;;4419585;28;658723;-72
2024/01/11 09:35:04;;;;;;;40.38;15.77;;;-3.00;99.90;;;;;;4390079;28;658587;-71
2024/01/11 09:37:51;;;;;;;23.40;8.07;;;-3.20;99.90;;;;;;4423184;28;658593;-71
2024/01/11 09:40:40;;;;;;;36.58;10.15;;;-3.30;99.90;;;;;;4400384;28;658018;-72
2024/01/11 09:43:27;;;;;;;28.33;9.73;;;-3.30;99.90;;;;;;4413432;28;658629;-72
2024/01/11 09:46:16;;;;;;;53.70;18.80;;;-3.00;99.90;;;;;;4423354;28;658352;-72
2024/01/11 09:49:04;;;;;;;37.20;12.73;;;-2.90;99.90;;;;;;4397675;28;658436;-72
2024/01/11 09:51:51;;;;;;;47.07;16.37;;;-2.90;99.90;;;;;;4419270;28;658551;-72
2024/01/11 09:54:40;;;;;;;37.23;12.87;;;-3.00;99.90;;;;;;4395723;28;658592;-72
2024/01/11 09:57:30;;;;;;;20.53;8.00;;;-3.00;99.90;;;;;;4419136;28;658727;-71
2024/01/11 10:00:18;;;;;;;31.33;11.60;;;-3.10;99.90;;;;;;4400733;28;658373;-72
2024/01/11 10:03:05;;;;;;;22.17;7.53;;;-3.10;99.90;;;;;;4413774;28;660064;-72
2024/01/11 10:05:54;;;;;;;48.83;19.43;;;-2.90;99.90;;;;;;4407328;28;657812;-72
2024/01/11 10:08:41;;;;;;;53.30;17.30;;;-2.90;99.20;;;;;;4424180;28;658572;-72
2024/01/11 10:11:28;;;;;;;23.13;7.43;;;-2.80;98.60;;;;;;4400515;28;659473;-72
2024/01/11 10:14:17;;;;;;;25.17;6.57;;;-2.60;99.40;;;;;;4426792;28;658234;-72
2024/01/11 10:17:05;;;;;;;30.10;7.77;;;-2.50;96.00;;;;;;4411912;28;657639;-72
2024/01/11 10:19:53;;;;;;;45.97;12.10;;;-2.60;97.00;;;;;;4442301;28;657172;-72
2024/01/11 10:22:41;;;;;;;35.67;11.90;;;-2.50;97.20;;;;;;4414993;28;659226;-72
2024/01/11 10:25:28;;;;;;;43.00;15.63;;;-2.50;98.70;;;;;;4423007;28;658445;-72
2024/01/11 10:28:18;;;;;;;53.97;20.70;;;-2.70;99.90;;;;;;4437341;28;658786;-72
2024/01/11 10:31:07;;;;;;;37.53;13.00;;;-2.70;99.40;;;;;;4416849;28;659113;-72
2024/01/11 10:33:54;;;;;;;27.73;9.00;;;-2.60;99.90;;;;;;4421064;28;659022;-72
2024/01/11 10:36:41;;;;;;;40.97;14.73;;;-2.40;97.70;;;;;;4438398;28;658052;-72
2024/01/11 10:39:29;;;;;;;40.87;14.77;;;-2.40;99.30;;;;;;4425493;28;659148;-72
2024/01/11 10:42:16;;;;;;;31.37;8.43;;;-2.20;99.90;;;;;;4432670;28;658933;-72
2024/01/11 10:45:04;;;;;;;32.03;11.90;;;-2.40;99.90;;;;;;4420248;28;659089;-72
2024/01/11 10:47:55;;;;;;;42.73;13.83;;;-2.30;99.90;;;;;;4440957;28;658577;-72
2024/01/11 10:50:43;;;;;;;40.23;13.50;;;-2.30;99.20;;;;;;4426453;28;659030;-71
2024/01/11 10:53:36;;;;;;;42.60;14.53;;;-2.40;99.90;;;;;;4438865;28;660007;-72
2024/01/11 10:56:23;;;;;;;39.90;12.73;;;-2.40;99.90;;;;;;4399376;28;659228;-72
2024/01/11 10:59:11;;;;;;;42.28;15.98;;;-2.20;99.90;;;;;;4435732;28;659573;-70
2024/01/11 11:01:58;;;;;;;38.70;12.20;;;-2.10;98.00;;;;;;4417873;28;659704;-70
2024/01/11 11:04:47;;;;;;;39.20;14.35;;;-2.20;97.40;;;;;;4437354;28;659668;-70
2024/01/11 11:07:36;;;;;;;41.13;13.63;;;-2.20;97.10;;;;;;4411914;28;658625;-70
2024/01/11 11:10:23;;;;;;;23.50;6.93;;;-2.20;96.50;;;;;;4419524;28;658759;-70
2024/01/11 11:13:11;;;;;;;49.10;16.40;;;-2.20;97.80;;;;;;4446800;28;658563;-71
2024/01/11 11:15:58;;;;;;;51.00;16.47;;;-2.30;99.60;;;;;;4415543;28;658844;-70
2024/01/11 11:18:45;;;;;;;43.60;13.95;;;-2.30;97.00;;;;;;4440241;28;659596;-70
2024/01/11 11:21:38;;;;;;;27.03;8.97;;;-2.40;95.80;;;;;;4414543;28;658649;-70
2024/01/11 11:24:26;;;;;;;56.87;18.83;;;-2.30;96.50;;;;;;4413267;28;658476;-70
2024/01/11 11:27:15;;;;;;;40.00;14.17;;;-2.30;94.50;;;;;;4415358;28;658538;-70
2024/01/11 11:30:04;;;;;;;42.47;12.00;;;-2.10;96.80;;;;;;4433452;28;659036;-70
2024/01/11 11:32:51;;;;;;;51.57;15.70;;;-2.10;94.60;;;;;;4441976;28;658979;-70
2024/01/11 11:35:38;;;;;;;43.60;16.57;;;-2.10;94.60;;;;;;4421764;28;658788;-70
2024/01/11 11:38:28;;;;;;;52.03;17.73;;;-2.20;94.00;;;;;;4436713;28;659601;-70
2024/01/11 11:41:15;;;;;;;40.30;14.27;;;-2.10;94.80;;;;;;4415828;28;659217;-70
2024/01/11 11:44:03;;;;;;;27.00;10.77;;;-2.10;95.20;;;;;;4417701;28;659648;-70
2024/01/11 11:46:50;;;;;;;50.03;16.53;;;-2.00;97.90;;;;;;4440535;28;658558;-71
2024/01/11 11:50:00;;;;;;;52.93;17.63;;;-2.00;96.80;;;;;;4421672;28;658430;-71
2024/01/11 11:52:47;;;;;;;40.07;11.90;;;-2.10;97.40;;;;;;4441352;28;658622;-70
2024/01/11 11:55:36;;;;;;;46.40;14.57;;;-2.00;99.50;;;;;;4445392;28;658739;-70
2024/01/11 11:58:23;;;;;;;47.17;15.53;;;-2.00;99.90;;;;;;4422304;28;658871;-70
2024/01/11 12:01:10;;;;;;;46.40;16.97;;;-1.70;99.90;;;;;;4440668;28;659688;-71
2024/01/11 12:03:58;;;;;;;44.77;16.73;;;-1.60;99.90;;;;;;4416415;28;658909;-70
2024/01/11 12:06:45;;;;;;;52.07;18.03;;;-1.10;96.60;;;;;;4444101;28;658839;-70
2024/01/11 12:09:33;;;;;;;47.85;14.30;;;-1.20;95.90;;;;;;4427050;28;659039;-70
2024/01/11 12:12:21;;;;;;;33.17;11.67;;;-1.30;97.90;;;;;;4445790;28;659629;-70
2024/01/11 12:15:09;;;;;;;43.00;12.30;;;-1.20;95.00;;;;;;4421201;28;658470;-71
2024/01/11 12:17:58;;;;;;;44.87;14.93;;;-1.30;96.90;;;;;;4438792;28;658898;-70
2024/01/11 12:20:46;;;;;;;42.50;17.03;;;-1.30;97.30;;;;;;4421544;28;659430;-70
2024/01/11 12:23:34;;;;;;;52.07;13.40;;;-1.30;93.80;;;;;;4425985;28;658662;-70
2024/01/11 12:26:22;;;;;;;43.13;15.20;;;-1.30;92.10;;;;;;4440099;28;658437;-71
2024/01/11 12:29:11;;;;;;;27.77;7.73;;;-1.50;94.90;;;;;;4419915;28;659670;-71
2024/01/11 12:31:59;;;;;;;38.33;12.02;;;-1.60;93.60;;;;;;4422901;28;657964;-70
2024/01/11 12:34:46;;;;;;;31.43;10.83;;;-1.60;95.60;;;;;;4443468;28;658929;-70
2024/01/11 12:37:33;;;;;;;33.83;11.90;;;-1.50;94.80;;;;;;4409471;28;660372;-71
2024/01/11 12:40:20;;;;;;;37.77;13.77;;;-1.60;96.00;;;;;;4444532;28;659738;-71
2024/01/11 12:43:08;;;;;;;38.40;14.63;;;-1.40;95.70;;;;;;4414435;28;658866;-70
2024/01/11 12:45:57;;;;;;;41.20;14.13;;;-1.50;94.60;;;;;;4436733;28;659262;-71
2024/01/11 12:48:44;;;;;;;47.10;15.43;;;-1.60;96.80;;;;;;4424694;28;659906;-71
2024/01/11 12:51:31;;;;;;;46.30;14.10;;;-1.40;96.90;;;;;;4438993;28;659332;-70
2024/01/11 12:54:19;;;;;;;32.17;11.53;;;-1.50;98.30;;;;;;4418669;28;658944;-70
2024/01/11 12:57:07;;;;;;;42.73;13.30;;;-1.40;97.80;;;;;;4442304;28;659070;-70
2024/01/11 12:59:54;;;;;;;48.17;13.63;;;-1.50;96.60;;;;;;4420579;28;659054;-70
2024/01/11 13:02:44;;;;;;;37.90;12.83;;;-1.60;99.70;;;;;;4440794;28;658685;-70
2024/01/11 13:05:34;;;;;;;23.83;7.77;;;-1.60;98.30;;;;;;4418646;28;658689;-70
2024/01/11 13:08:21;;;;;;;49.77;16.10;;;-1.50;97.00;;;;;;4418186;28;657264;-70
2024/01/11 13:11:09;;;;;;;43.70;14.33;;;-1.60;99.00;;;;;;4409446;28;658754;-70
2024/01/11 13:13:58;;;;;;;59.53;16.73;;;-1.70;99.00;;;;;;4437148;28;659006;-70
2024/01/11 13:16:46;;;;;;;54.73;18.33;;;-1.80;99.90;;;;;;4413091;28;658874;-70
2024/01/11 13:19:35;;;;;;;35.47;11.20;;;-1.80;99.90;;;;;;4420577;28;658795;-70
2024/01/11 13:22:23;;;;;;;53.92;19.90;;;-1.80;99.90;;;;;;4428278;28;658771;-70
2024/01/11 13:25:10;;;;;;;45.23;16.13;;;-1.90;99.90;;;;;;4439549;28;659214;-70
2024/01/11 13:27:58;;;;;;;51.97;18.70;;;-1.90;99.90;;;;;;4443341;28;658951;-70
2024/01/11 13:30:46;;;;;;;61.47;19.20;;;-2.00;99.90;;;;;;4442621;28;659683;-69
2024/01/11 13:33:33;;;;;;;48.23;14.20;;;-2.00;99.90;;;;;;4404345;28;659252;-70
2024/01/11 13:36:22;;;;;;;44.95;16.08;;;-2.10;99.90;;;;;;4446222;28;658781;-70
2024/01/11 13:39:10;;;;;;;42.63;15.50;;;-2.20;99.90;;;;;;4410340;28;659963;-69
2024/01/11 13:41:58;;;;;;;52.73;18.53;;;-2.20;99.90;;;;;;4434067;28;659713;-70
2024/01/11 13:44:45;;;;;;;55.23;18.10;;;-2.30;99.90;;;;;;4441011;28;660292;-70
2024/01/11 13:47:33;;;;;;;61.67;21.03;;;-2.20;99.90;;;;;;4423843;28;659152;-70
2024/01/11 13:50:20;;;;;;;51.70;17.70;;;-2.30;99.90;;;;;;4435922;28;660214;-70
2024/01/11 13:53:09;;;;;;;61.80;22.53;;;-2.30;99.90;;;;;;4438190;28;659688;-70
2024/01/11 13:55:56;;;;;;;61.77;21.87;;;-2.40;99.90;;;;;;4442831;28;658470;-70
2024/01/11 13:58:44;;;;;;;67.20;23.10;;;-2.40;99.90;;;;;;4419291;28;658458;-70
2024/01/11 14:01:31;;;;;;;49.20;15.90;;;-2.50;99.90;;;;;;4441088;28;659318;-70